sensor_id;sensor_type;location;lat;lon;timestamp;pressure;altitude;pressure_sealevel;temperature;humidity
17635;BME280;8936;49.010;12.120;2023-02-02T00:01:09;97940.47;;;5.99;100.00
17635;BME280;8936;49.010;12.120;2023-02-02T00:03:35;97960.06;;;5.98;100.00
17635;BME280;8936;49.010;12.120;2023-02-02T00:06:03;97957.53;;;6.03;100.00
17635;BME280;8936;49.010;12.120;2023-02-02T00:08:30;97946.69;;;6.05;100.00
17635;BME280;8936;49.010;12.120;2023-02-02T00:10:56;97955.09;;;6.02;100.00
17635;BME280;8936;49.010;12.120;2023-02-02T00:13:22;97953.72;;;5.99;100.00
17635;BME280;8936;49.010;12.120;2023-02-02T00:15:50;97960.66;;;6.00;100.00
17635;BME280;8936;49.010;12.120;2023-02-02T00:18:17;97965.69;;;6.13;100.00
17635;BME280;8936;49.010;12.120;2023-02-02T00:20:43;97960.84;;;6.10;100.00
17635;BME280;8936;49.010;12.120;2023-02-02T00:23:13;97972.84;;;6.13;100.00
17635;BME280;8936;49.010;12.120;2023-02-02T00:25:39;97965.94;;;6.12;100.00
17635;BME280;8936;49.010;12.120;2023-02-02T00:28:06;97961.09;;;6.09;100.00
17635;BME280;8936;49.010;12.120;2023-02-02T00:30:32;97964.78;;;6.08;100.00
17635;BME280;8936;49.010;12.120;2023-02-02T00:33:00;97959.13;;;6.04;100.00
17635;BME280;8936;49.010;12.120;2023-02-02T00:35:26;97967.22;;;6.09;100.00
17635;BME280;8936;49.010;12.120;2023-02-02T00:37:53;97961.09;;;6.09;100.00
17635;BME280;8936;49.010;12.120;2023-02-02T00:40:19;97971.00;;;6.02;100.00
17635;BME280;8936;49.010;12.120;2023-02-02T00:42:45;97965.03;;;6.06;100.00
17635;BME280;8936;49.010;12.120;2023-02-02T00:45:14;97991.75;;;6.05;100.00
17635;BME280;8936;49.010;12.120;2023-02-02T00:47:40;97964.22;;;6.06;100.00
17635;BME280;8936;49.010;12.120;2023-02-02T00:50:08;97973.75;;;6.07;100.00
17635;BME280;8936;49.010;12.120;2023-02-02T00:52:34;97970.88;;;6.08;100.00
17635;BME280;8936;49.010;12.120;2023-02-02T00:55:01;97974.09;;;6.10;100.00
17635;BME280;8936;49.010;12.120;2023-02-02T00:57:27;97979.88;;;6.07;100.00
17635;BME280;8936;49.010;12.120;2023-02-02T00:59:53;97994.19;;;6.06;100.00
17635;BME280;8936;49.010;12.120;2023-02-02T01:02:20;97992.56;;;6.05;100.00
17635;BME280;8936;49.010;12.120;2023-02-02T01:04:46;98002.72;;;6.08;100.00
17635;BME280;8936;49.010;12.120;2023-02-02T01:07:14;97998.09;;;6.15;100.00
17635;BME280;8936;49.010;12.120;2023-02-02T01:09:40;97992.66;;;6.10;100.00
17635;BME280;8936;49.010;12.120;2023-02-02T01:12:06;97991.63;;;6.11;100.00
17635;BME280;8936;49.010;12.120;2023-02-02T01:14:33;97994.84;;;6.13;100.00
17635;BME280;8936;49.010;12.120;2023-02-02T01:16:59;97998.56;;;6.12;100.00
17635;BME280;8936;49.010;12.120;2023-02-02T01:19:26;97998.44;;;6.07;100.00
17635;BME280;8936;49.010;12.120;2023-02-02T01:21:52;97993.72;;;6.09;100.00
17635;BME280;8936;49.010;12.120;2023-02-02T01:24:20;98004.31;;;6.09;100.00
17635;BME280;8936;49.010;12.120;2023-02-02T01:26:46;98012.28;;;6.09;100.00
17635;BME280;8936;49.010;12.120;2023-02-02T01:29:12;98005.91;;;6.10;100.00
17635;BME280;8936;49.010;12.120;2023-02-02T01:31:39;98003.53;;;6.09;100.00
17635;BME280;8936;49.010;12.120;2023-02-02T01:34:06;98012.16;;;6.04;100.00
17635;BME280;8936;49.010;12.120;2023-02-02T01:36:32;98022.75;;;6.04;100.00
17635;BME280;8936;49.010;12.120;2023-02-02T01:38:59;98030.34;;;6.01;100.00
17635;BME280;8936;49.010;12.120;2023-02-02T01:41:26;98024.50;;;5.98;100.00
17635;BME280;8936;49.010;12.120;2023-02-02T01:43:55;98018.03;;;5.94;100.00
17635;BME280;8936;49.010;12.120;2023-02-02T01:46:22;98025.53;;;6.09;100.00
17635;BME280;8936;49.010;12.120;2023-02-02T01:48:51;98019.53;;;6.02;100.00
17635;BME280;8936;49.010;12.120;2023-02-02T01:51:20;98039.13;;;6.01;100.00
17635;BME280;8936;49.010;12.120;2023-02-02T01:53:48;98054.06;;;5.84;100.00
17635;BME280;8936;49.010;12.120;2023-02-02T01:56:17;98058.13;;;5.98;100.00
17635;BME280;8936;49.010;12.120;2023-02-02T01:58:46;98051.91;;;6.04;100.00
17635;BME280;8936;49.010;12.120;2023-02-02T02:01:12;98061.72;;;6.04;100.00
17635;BME280;8936;49.010;12.120;2023-02-02T02:03:39;98058.50;;;5.90;100.00
17635;BME280;8936;49.010;12.120;2023-02-02T02:06:06;98082.34;;;5.49;100.00
17635;BME280;8936;49.010;12.120;2023-02-02T02:08:35;98065.78;;;5.53;100.00
17635;BME280;8936;49.010;12.120;2023-02-02T02:11:03;98054.53;;;5.69;100.00
17635;BME280;8936;49.010;12.120;2023-02-02T02:13:29;98085.84;;;5.01;100.00
17635;BME280;8936;49.010;12.120;2023-02-02T02:16:13;98094.09;;;4.39;100.00
17635;BME280;8936;49.010;12.120;2023-02-02T02:18:44;98084.31;;;4.75;100.00
17635;BME280;8936;49.010;12.120;2023-02-02T02:21:24;98053.53;;;4.63;100.00
17635;BME280;8936;49.010;12.120;2023-02-02T02:27:19;98077.94;;;4.04;100.00
17635;BME280;8936;49.010;12.120;2023-02-02T02:32:39;98096.75;;;3.33;100.00
17635;BME280;8936;49.010;12.120;2023-02-02T02:35:09;98103.28;;;3.31;100.00
17635;BME280;8936;49.010;12.120;2023-02-02T02:37:41;98128.84;;;3.30;100.00
17635;BME280;8936;49.010;12.120;2023-02-02T02:40:12;98126.09;;;3.81;100.00
17635;BME280;8936;49.010;12.120;2023-02-02T02:42:42;98125.50;;;3.79;100.00
17635;BME280;8936;49.010;12.120;2023-02-02T02:45:10;98145.50;;;3.31;100.00
17635;BME280;8936;49.010;12.120;2023-02-02T02:47:39;98131.63;;;3.42;100.00
17635;BME280;8936;49.010;12.120;2023-02-02T02:50:07;98135.25;;;4.03;100.00
17635;BME280;8936;49.010;12.120;2023-02-02T02:52:33;98128.72;;;4.30;100.00
17635;BME280;8936;49.010;12.120;2023-02-02T02:55:01;98126.41;;;4.41;100.00
17635;BME280;8936;49.010;12.120;2023-02-02T02:57:33;98133.63;;;4.70;100.00
17635;BME280;8936;49.010;12.120;2023-02-02T03:00:06;98135.03;;;4.90;100.00
17635;BME280;8936;49.010;12.120;2023-02-02T03:02:38;98124.13;;;5.17;100.00
17635;BME280;8936;49.010;12.120;2023-02-02T03:05:12;98115.56;;;5.33;100.00
17635;BME280;8936;49.010;12.120;2023-02-02T03:07:43;98115.63;;;5.44;100.00
17635;BME280;8936;49.010;12.120;2023-02-02T03:10:12;98119.13;;;5.57;100.00
17635;BME280;8936;49.010;12.120;2023-02-02T03:12:44;98122.44;;;5.64;100.00
17635;BME280;8936;49.010;12.120;2023-02-02T03:15:11;98132.97;;;5.70;100.00
17635;BME280;8936;49.010;12.120;2023-02-02T03:17:37;98136.53;;;5.76;100.00
17635;BME280;8936;49.010;12.120;2023-02-02T03:20:04;98136.91;;;5.79;100.00
17635;BME280;8936;49.010;12.120;2023-02-02T03:22:32;98134.50;;;5.78;100.00
17635;BME280;8936;49.010;12.120;2023-02-02T03:24:58;98140.38;;;5.80;100.00
17635;BME280;8936;49.010;12.120;2023-02-02T03:27:25;98150.16;;;5.79;100.00
17635;BME280;8936;49.010;12.120;2023-02-02T03:29:52;98154.44;;;5.80;100.00
17635;BME280;8936;49.010;12.120;2023-02-02T03:32:19;98146.47;;;5.80;100.00
17635;BME280;8936;49.010;12.120;2023-02-02T03:34:45;98141.75;;;5.82;100.00
17635;BME280;8936;49.010;12.120;2023-02-02T03:37:12;98144.63;;;5.81;100.00
17635;BME280;8936;49.010;12.120;2023-02-02T03:39:40;98150.50;;;5.83;100.00
17635;BME280;8936;49.010;12.120;2023-02-02T03:42:06;98145.66;;;5.80;100.00
17635;BME280;8936;49.010;12.120;2023-02-02T03:44:32;98151.31;;;5.83;100.00
17635;BME280;8936;49.010;12.120;2023-02-02T03:46:59;98156.56;;;5.90;100.00
17635;BME280;8936;49.010;12.120;2023-02-02T03:49:25;98153.09;;;5.89;100.00
17635;BME280;8936;49.010;12.120;2023-02-02T03:51:51;98161.16;;;5.94;100.00
17635;BME280;8936;49.010;12.120;2023-02-02T03:54:18;98166.59;;;5.88;100.00
17635;BME280;8936;49.010;12.120;2023-02-02T03:56:45;98162.44;;;5.92;100.00
17635;BME280;8936;49.010;12.120;2023-02-02T03:59:12;98175.59;;;5.98;100.00
17635;BME280;8936;49.010;12.120;2023-02-02T04:01:38;98175.22;;;5.95;100.00
17635;BME280;8936;49.010;12.120;2023-02-02T04:04:05;98176.84;;;5.96;100.00
17635;BME280;8936;49.010;12.120;2023-02-02T04:06:31;98176.94;;;5.89;100.00
17635;BME280;8936;49.010;12.120;2023-02-02T04:08:57;98177.88;;;5.95;100.00
17635;BME280;8936;49.010;12.120;2023-02-02T04:11:24;98178.25;;;5.98;100.00
17635;BME280;8936;49.010;12.120;2023-02-02T04:13:51;98183.53;;;5.98;100.00
17635;BME280;8936;49.010;12.120;2023-02-02T04:16:18;98178.47;;;5.97;100.00
17635;BME280;8936;49.010;12.120;2023-02-02T04:18:44;98178.94;;;5.94;100.00
17635;BME280;8936;49.010;12.120;2023-02-02T04:21:10;98179.38;;;5.91;100.00
17635;BME280;8936;49.010;12.120;2023-02-02T04:23:37;98184.09;;;5.89;100.00
17635;BME280;8936;49.010;12.120;2023-02-02T04:26:03;98175.31;;;5.88;100.00
17635;BME280;8936;49.010;12.120;2023-02-02T04:28:29;98181.00;;;5.92;100.00
17635;BME280;8936;49.010;12.120;2023-02-02T04:30:57;98189.75;;;5.92;100.00
17635;BME280;8936;49.010;12.120;2023-02-02T04:33:25;98188.47;;;5.95;100.00
17635;BME280;8936;49.010;12.120;2023-02-02T04:35:51;98192.19;;;5.94;100.00
17635;BME280;8936;49.010;12.120;2023-02-02T04:38:18;98187.63;;;5.83;100.00
17635;BME280;8936;49.010;12.120;2023-02-02T04:40:45;98186.38;;;5.85;100.00
17635;BME280;8936;49.010;12.120;2023-02-02T04:43:11;98181.91;;;5.86;100.00
17635;BME280;8936;49.010;12.120;2023-02-02T04:45:38;98174.31;;;5.89;100.00
17635;BME280;8936;49.010;12.120;2023-02-02T04:48:06;98187.19;;;5.86;100.00
17635;BME280;8936;49.010;12.120;2023-02-02T04:50:32;98189.44;;;5.82;100.00
17635;BME280;8936;49.010;12.120;2023-02-02T04:52:58;98179.53;;;5.78;100.00
17635;BME280;8936;49.010;12.120;2023-02-02T04:55:25;98180.88;;;5.87;100.00
17635;BME280;8936;49.010;12.120;2023-02-02T04:57:51;98177.53;;;5.91;100.00
17635;BME280;8936;49.010;12.120;2023-02-02T05:00:17;98177.06;;;5.94;100.00
17635;BME280;8936;49.010;12.120;2023-02-02T05:02:44;98188.19;;;5.85;100.00
17635;BME280;8936;49.010;12.120;2023-02-02T05:05:12;98181.69;;;5.87;100.00
17635;BME280;8936;49.010;12.120;2023-02-02T05:07:39;98201.63;;;5.90;100.00
17635;BME280;8936;49.010;12.120;2023-02-02T05:10:06;98208.66;;;5.96;100.00
17635;BME280;8936;49.010;12.120;2023-02-02T05:12:32;98202.78;;;5.94;100.00
17635;BME280;8936;49.010;12.120;2023-02-02T05:14:59;98206.59;;;5.98;100.00
17635;BME280;8936;49.010;12.120;2023-02-02T05:17:27;98211.31;;;5.96;100.00
17635;BME280;8936;49.010;12.120;2023-02-02T05:19:53;98200.94;;;5.94;100.00
17635;BME280;8936;49.010;12.120;2023-02-02T05:22:21;98220.91;;;5.97;100.00
17635;BME280;8936;49.010;12.120;2023-02-02T05:24:47;98216.38;;;5.97;100.00
17635;BME280;8936;49.010;12.120;2023-02-02T05:27:14;98219.03;;;5.97;100.00
17635;BME280;8936;49.010;12.120;2023-02-02T05:29:40;98219.16;;;5.91;100.00
17635;BME280;8936;49.010;12.120;2023-02-02T05:32:06;98217.72;;;5.88;100.00
17635;BME280;8936;49.010;12.120;2023-02-02T05:34:33;98217.53;;;5.90;100.00
17635;BME280;8936;49.010;12.120;2023-02-02T05:36:59;98219.59;;;5.88;100.00
17635;BME280;8936;49.010;12.120;2023-02-02T05:39:27;98219.94;;;5.91;100.00
17635;BME280;8936;49.010;12.120;2023-02-02T05:41:53;98230.19;;;5.88;100.00
17635;BME280;8936;49.010;12.120;2023-02-02T05:44:19;98235.88;;;5.85;100.00
17635;BME280;8936;49.010;12.120;2023-02-02T05:46:46;98235.84;;;5.91;100.00
17635;BME280;8936;49.010;12.120;2023-02-02T05:49:12;98223.50;;;5.85;100.00
17635;BME280;8936;49.010;12.120;2023-02-02T05:51:39;98229.59;;;5.86;100.00
17635;BME280;8936;49.010;12.120;2023-02-02T05:54:07;98243.50;;;5.81;100.00
17635;BME280;8936;49.010;12.120;2023-02-02T05:56:35;98239.19;;;5.87;100.00
17635;BME280;8936;49.010;12.120;2023-02-02T05:59:01;98237.41;;;5.81;100.00
17635;BME280;8936;49.010;12.120;2023-02-02T06:01:31;98237.41;;;5.81;100.00
17635;BME280;8936;49.010;12.120;2023-02-02T06:03:58;98237.25;;;5.76;100.00
17635;BME280;8936;49.010;12.120;2023-02-02T06:06:24;98237.25;;;5.76;100.00
17635;BME280;8936;49.010;12.120;2023-02-02T06:08:50;98244.28;;;5.82;100.00
17635;BME280;8936;49.010;12.120;2023-02-02T06:11:17;98249.78;;;5.87;100.00
17635;BME280;8936;49.010;12.120;2023-02-02T06:13:45;98243.47;;;5.88;100.00
17635;BME280;8936;49.010;12.120;2023-02-02T06:16:11;98244.75;;;5.79;100.00
17635;BME280;8936;49.010;12.120;2023-02-02T06:18:37;98243.22;;;5.89;100.00
17635;BME280;8936;49.010;12.120;2023-02-02T06:21:04;98240.50;;;5.78;100.00
17635;BME280;8936;49.010;12.120;2023-02-02T06:23:31;98235.72;;;5.86;100.00
17635;BME280;8936;49.010;12.120;2023-02-02T06:25:58;98233.28;;;5.67;100.00
17635;BME280;8936;49.010;12.120;2023-02-02T06:28:24;98238.81;;;5.65;100.00
17635;BME280;8936;49.010;12.120;2023-02-02T06:30:52;98234.50;;;5.53;100.00
17635;BME280;8936;49.010;12.120;2023-02-02T06:33:19;98239.56;;;5.54;100.00
17635;BME280;8936;49.010;12.120;2023-02-02T06:35:45;98234.50;;;5.53;100.00
17635;BME280;8936;49.010;12.120;2023-02-02T06:38:11;98233.56;;;5.47;100.00
17635;BME280;8936;49.010;12.120;2023-02-02T06:40:38;98241.25;;;5.49;100.00
17635;BME280;8936;49.010;12.120;2023-02-02T06:43:04;98237.16;;;5.53;100.00
17635;BME280;8936;49.010;12.120;2023-02-02T06:45:33;98244.94;;;5.66;100.00
17635;BME280;8936;49.010;12.120;2023-02-02T06:48:05;98257.28;;;5.72;100.00
17635;BME280;8936;49.010;12.120;2023-02-02T06:50:35;98256.69;;;5.70;100.00
17635;BME280;8936;49.010;12.120;2023-02-02T06:53:01;98263.97;;;5.74;100.00
17635;BME280;8936;49.010;12.120;2023-02-02T06:55:27;98263.63;;;5.71;100.00
17635;BME280;8936;49.010;12.120;2023-02-02T06:57:55;98272.25;;;5.66;100.00
17635;BME280;8936;49.010;12.120;2023-02-02T07:00:21;98263.84;;;5.69;100.00
17635;BME280;8936;49.010;12.120;2023-02-02T07:02:48;98263.63;;;5.53;100.00
17635;BME280;8936;49.010;12.120;2023-02-02T07:05:15;98262.16;;;5.57;100.00
17635;BME280;8936;49.010;12.120;2023-02-02T07:07:43;98264.72;;;5.63;100.00
17635;BME280;8936;49.010;12.120;2023-02-02T07:10:10;98268.34;;;5.69;100.00
17635;BME280;8936;49.010;12.120;2023-02-02T07:12:37;98266.19;;;5.77;100.00
17635;BME280;8936;49.010;12.120;2023-02-02T07:15:03;98265.81;;;5.74;100.00
17635;BME280;8936;49.010;12.120;2023-02-02T07:17:31;98266.94;;;5.48;100.00
17635;BME280;8936;49.010;12.120;2023-02-02T07:19:57;98262.75;;;5.40;100.00
17635;BME280;8936;49.010;12.120;2023-02-02T07:22:25;98273.50;;;5.45;100.00
17635;BME280;8936;49.010;12.120;2023-02-02T07:24:51;98275.56;;;5.43;100.00
17635;BME280;8936;49.010;12.120;2023-02-02T07:27:18;98277.81;;;5.58;100.00
17635;BME280;8936;49.010;12.120;2023-02-02T07:29:44;98271.34;;;5.54;100.00
17635;BME280;8936;49.010;12.120;2023-02-02T07:32:10;98277.69;;;5.71;100.00
17635;BME280;8936;49.010;12.120;2023-02-02T07:34:37;98269.22;;;5.63;100.00
17635;BME280;8936;49.010;12.120;2023-02-02T07:37:03;98277.91;;;5.52;100.00
17635;BME280;8936;49.010;12.120;2023-02-02T07:39:31;98268.56;;;5.49;100.00
17635;BME280;8936;49.010;12.120;2023-02-02T07:41:57;98278.94;;;5.51;100.00
17635;BME280;8936;49.010;12.120;2023-02-02T07:44:24;98268.06;;;5.40;100.00
17635;BME280;8936;49.010;12.120;2023-02-02T07:46:51;98269.88;;;5.58;100.00
17635;BME280;8936;49.010;12.120;2023-02-02T07:49:17;98276.31;;;5.51;100.00
17635;BME280;8936;49.010;12.120;2023-02-02T07:51:44;98273.22;;;5.54;100.00
17635;BME280;8936;49.010;12.120;2023-02-02T07:54:13;98273.34;;;5.59;100.00
17635;BME280;8936;49.010;12.120;2023-02-02T07:56:41;98277.97;;;5.63;100.00
17635;BME280;8936;49.010;12.120;2023-02-02T07:59:08;98289.53;;;5.69;100.00
17635;BME280;8936;49.010;12.120;2023-02-02T08:01:35;98289.53;;;5.69;100.00
17635;BME280;8936;49.010;12.120;2023-02-02T08:04:01;98289.47;;;5.75;100.00
17635;BME280;8936;49.010;12.120;2023-02-02T08:06:29;98291.88;;;5.77;100.00
17635;BME280;8936;49.010;12.120;2023-02-02T08:08:56;98288.78;;;5.80;100.00
17635;BME280;8936;49.010;12.120;2023-02-02T08:11:23;98291.66;;;5.78;100.00
17635;BME280;8936;49.010;12.120;2023-02-02T08:13:51;98286.44;;;5.72;100.00
17635;BME280;8936;49.010;12.120;2023-02-02T08:16:18;98289.09;;;5.72;100.00
17635;BME280;8936;49.010;12.120;2023-02-02T08:18:45;98299.81;;;5.77;100.00
17635;BME280;8936;49.010;12.120;2023-02-02T08:21:12;98300.06;;;5.75;100.00
17635;BME280;8936;49.010;12.120;2023-02-02T08:23:39;98297.69;;;5.67;100.00
17635;BME280;8936;49.010;12.120;2023-02-02T08:26:07;98302.25;;;5.60;100.00
17635;BME280;8936;49.010;12.120;2023-02-02T08:28:33;98298.13;;;5.64;100.00
17635;BME280;8936;49.010;12.120;2023-02-02T08:31:04;98304.63;;;5.68;100.00
17635;BME280;8936;49.010;12.120;2023-02-02T08:33:30;98307.09;;;5.63;100.00
17635;BME280;8936;49.010;12.120;2023-02-02T08:35:56;98310.75;;;5.51;100.00
17635;BME280;8936;49.010;12.120;2023-02-02T08:38:23;98302.84;;;5.44;100.00
17635;BME280;8936;49.010;12.120;2023-02-02T08:40:49;98295.56;;;5.58;100.00
17635;BME280;8936;49.010;12.120;2023-02-02T08:43:16;98300.59;;;5.48;100.00
17635;BME280;8936;49.010;12.120;2023-02-02T08:45:42;98299.03;;;5.58;100.00
17635;BME280;8936;49.010;12.120;2023-02-02T08:48:10;98304.13;;;5.60;100.00
17635;BME280;8936;49.010;12.120;2023-02-02T08:50:38;98305.13;;;5.59;100.00
17635;BME280;8936;49.010;12.120;2023-02-02T08:53:04;98307.84;;;5.34;100.00
17635;BME280;8936;49.010;12.120;2023-02-02T08:55:31;98317.88;;;5.50;100.00
17635;BME280;8936;49.010;12.120;2023-02-02T08:57:57;98304.53;;;5.38;100.00
17635;BME280;8936;49.010;12.120;2023-02-02T09:00:24;98311.69;;;5.38;100.00
17635;BME280;8936;49.010;12.120;2023-02-02T09:02:50;98312.91;;;5.35;100.00
17635;BME280;8936;49.010;12.120;2023-02-02T09:05:18;98309.56;;;5.47;100.00
17635;BME280;8936;49.010;12.120;2023-02-02T09:07:45;98318.38;;;5.40;100.00
17635;BME280;8936;49.010;12.120;2023-02-02T09:10:13;98318.00;;;5.37;100.00
17635;BME280;8936;49.010;12.120;2023-02-02T09:12:39;98319.63;;;5.38;100.00
17635;BME280;8936;49.010;12.120;2023-02-02T09:15:06;98315.72;;;5.40;100.00
17635;BME280;8936;49.010;12.120;2023-02-02T09:17:32;98319.13;;;5.48;100.00
17635;BME280;8936;49.010;12.120;2023-02-02T09:19:59;98327.50;;;5.44;100.00
17635;BME280;8936;49.010;12.120;2023-02-02T09:22:27;98330.38;;;5.43;100.00
17635;BME280;8936;49.010;12.120;2023-02-02T09:24:53;98328.09;;;5.47;100.00
17635;BME280;8936;49.010;12.120;2023-02-02T09:27:20;98321.78;;;5.48;100.00
17635;BME280;8936;49.010;12.120;2023-02-02T09:29:46;98330.00;;;5.58;100.00
17635;BME280;8936;49.010;12.120;2023-02-02T09:32:12;98338.75;;;5.58;100.00
17635;BME280;8936;49.010;12.120;2023-02-02T09:34:39;98333.97;;;5.49;100.00
17635;BME280;8936;49.010;12.120;2023-02-02T09:37:05;98334.91;;;5.54;100.00
17635;BME280;8936;49.010;12.120;2023-02-02T09:39:33;98335.28;;;5.58;100.00
17635;BME280;8936;49.010;12.120;2023-02-02T09:44:45;98336.03;;;5.65;100.00
17635;BME280;8936;49.010;12.120;2023-02-02T09:47:15;98340.88;;;5.31;100.00
17635;BME280;8936;49.010;12.120;2023-02-02T09:49:46;98354.59;;;5.47;100.00
17635;BME280;8936;49.010;12.120;2023-02-02T09:52:17;98350.63;;;5.56;100.00
17635;BME280;8936;49.010;12.120;2023-02-02T09:54:47;98351.81;;;5.60;100.00
17635;BME280;8936;49.010;12.120;2023-02-02T09:57:15;98352.88;;;5.52;100.00
17635;BME280;8936;49.010;12.120;2023-02-02T09:59:44;98355.03;;;5.43;100.00
17635;BME280;8936;49.010;12.120;2023-02-02T10:02:14;98355.16;;;5.49;100.00
17635;BME280;8936;49.010;12.120;2023-02-02T10:04:42;98355.41;;;5.47;100.00
17635;BME280;8936;49.010;12.120;2023-02-02T10:07:11;98359.31;;;5.44;100.00
17635;BME280;8936;49.010;12.120;2023-02-02T10:09:39;98350.75;;;5.42;100.00
17635;BME280;8936;49.010;12.120;2023-02-02T10:12:16;98343.09;;;5.53;100.00
17635;BME280;8936;49.010;12.120;2023-02-02T10:14:45;98349.16;;;5.60;100.00
17635;BME280;8936;49.010;12.120;2023-02-02T10:17:24;98350.91;;;5.48;100.00
17635;BME280;8936;49.010;12.120;2023-02-02T10:19:52;98351.69;;;5.48;100.00
17635;BME280;8936;49.010;12.120;2023-02-02T10:22:21;98348.53;;;5.58;100.00
17635;BME280;8936;49.010;12.120;2023-02-02T10:24:49;98353.84;;;5.58;100.00
17635;BME280;8936;49.010;12.120;2023-02-02T10:27:19;98347.09;;;5.62;100.00
17635;BME280;8936;49.010;12.120;2023-02-02T10:29:51;98344.19;;;5.63;100.00
17635;BME280;8936;49.010;12.120;2023-02-02T10:32:21;98338.91;;;5.63;100.00
17635;BME280;8936;49.010;12.120;2023-02-02T10:34:57;98341.34;;;5.65;100.00
17635;BME280;8936;49.010;12.120;2023-02-02T10:37:28;98339.28;;;5.67;100.00
17635;BME280;8936;49.010;12.120;2023-02-02T10:40:04;98343.56;;;5.68;100.00
17635;BME280;8936;49.010;12.120;2023-02-02T10:42:37;98346.34;;;5.73;100.00
17635;BME280;8936;49.010;12.120;2023-02-02T10:45:07;98337.66;;;5.66;100.00
17635;BME280;8936;49.010;12.120;2023-02-02T10:47:36;98343.41;;;5.63;100.00
17635;BME280;8936;49.010;12.120;2023-02-02T10:50:12;98349.16;;;5.60;100.00
17635;BME280;8936;49.010;12.120;2023-02-02T10:52:40;98345.38;;;5.67;100.00
17635;BME280;8936;49.010;12.120;2023-02-02T10:55:13;98341.91;;;5.67;100.00
17635;BME280;8936;49.010;12.120;2023-02-02T10:57:47;98341.84;;;5.73;100.00
17635;BME280;8936;49.010;12.120;2023-02-02T11:00:18;98345.31;;;5.74;100.00
17635;BME280;8936;49.010;12.120;2023-02-02T11:02:46;98345.31;;;5.74;100.00
17635;BME280;8936;49.010;12.120;2023-02-02T11:05:12;98329.50;;;5.67;100.00
17635;BME280;8936;49.010;12.120;2023-02-02T11:07:57;98335.66;;;5.61;100.00
17635;BME280;8936;49.010;12.120;2023-02-02T11:10:24;98330.16;;;5.63;100.00
17635;BME280;8936;49.010;12.120;2023-02-02T11:12:52;98334.91;;;5.54;100.00
17635;BME280;8936;49.010;12.120;2023-02-02T11:15:22;98332.66;;;5.58;100.00
17635;BME280;8936;49.010;12.120;2023-02-02T11:17:50;98330.75;;;5.65;100.00
17635;BME280;8936;49.010;12.120;2023-02-02T11:20:20;98337.22;;;5.51;100.00
17635;BME280;8936;49.010;12.120;2023-02-02T11:22:47;98331.69;;;5.52;100.00
17635;BME280;8936;49.010;12.120;2023-02-02T11:25:25;98325.50;;;5.58;100.00
17635;BME280;8936;49.010;12.120;2023-02-02T11:27:53;98334.28;;;5.59;100.00
17635;BME280;8936;49.010;12.120;2023-02-02T11:30:20;98336.50;;;5.62;100.00
17635;BME280;8936;49.010;12.120;2023-02-02T11:32:51;98333.59;;;5.63;100.00
17635;BME280;8936;49.010;12.120;2023-02-02T11:35:19;98326.84;;;5.67;100.00
17635;BME280;8936;49.010;12.120;2023-02-02T11:37:56;98335.75;;;5.73;100.00
17635;BME280;8936;49.010;12.120;2023-02-02T11:40:26;98323.31;;;5.73;100.00
17635;BME280;8936;49.010;12.120;2023-02-02T11:42:54;98327.34;;;5.76;100.00
17635;BME280;8936;49.010;12.120;2023-02-02T11:45:24;98322.47;;;5.73;100.00
17635;BME280;8936;49.010;12.120;2023-02-02T11:47:52;98329.41;;;5.74;100.00
17635;BME280;8936;49.010;12.120;2023-02-02T11:50:19;98326.19;;;5.72;100.00
17635;BME280;8936;49.010;12.120;2023-02-02T11:52:48;98322.06;;;5.58;100.00
17635;BME280;8936;49.010;12.120;2023-02-02T11:55:16;98331.50;;;5.54;100.00
17635;BME280;8936;49.010;12.120;2023-02-02T11:57:54;98330.00;;;5.58;100.00
17635;BME280;8936;49.010;12.120;2023-02-02T12:00:32;98325.75;;;5.57;100.00
17635;BME280;8936;49.010;12.120;2023-02-02T12:02:58;98324.56;;;5.53;100.00
17635;BME280;8936;49.010;12.120;2023-02-02T12:05:32;98313.72;;;5.54;100.00
17635;BME280;8936;49.010;12.120;2023-02-02T12:07:58;98314.41;;;5.50;100.00
17635;BME280;8936;49.010;12.120;2023-02-02T12:10:26;98315.94;;;5.39;100.00
17635;BME280;8936;49.010;12.120;2023-02-02T12:12:58;98309.81;;;5.20;100.00
17635;BME280;8936;49.010;12.120;2023-02-02T12:15:28;98306.56;;;5.00;100.00
17635;BME280;8936;49.010;12.120;2023-02-02T12:18:01;98312.44;;;5.02;100.00
17635;BME280;8936;49.010;12.120;2023-02-02T12:20:34;98313.78;;;5.11;100.00
17635;BME280;8936;49.010;12.120;2023-02-02T12:23:10;98317.75;;;5.20;100.00
17635;BME280;8936;49.010;12.120;2023-02-02T12:25:45;98308.72;;;5.28;100.00
17635;BME280;8936;49.010;12.120;2023-02-02T12:28:19;98309.03;;;5.38;100.00
17635;BME280;8936;49.010;12.120;2023-02-02T12:30:51;98313.66;;;5.24;100.00
17635;BME280;8936;49.010;12.120;2023-02-02T12:33:22;98309.16;;;5.25;100.00
17635;BME280;8936;49.010;12.120;2023-02-02T12:36:03;98314.84;;;5.28;100.00
17635;BME280;8936;49.010;12.120;2023-02-02T12:38:38;98314.78;;;5.35;100.00
17635;BME280;8936;49.010;12.120;2023-02-02T12:41:14;98312.78;;;5.30;100.00
17635;BME280;8936;49.010;12.120;2023-02-02T12:43:44;98321.16;;;5.27;100.00
17635;BME280;8936;49.010;12.120;2023-02-02T12:46:16;98316.31;;;5.42;100.00
17635;BME280;8936;49.010;12.120;2023-02-02T12:48:49;98316.47;;;5.05;100.00
17635;BME280;8936;49.010;12.120;2023-02-02T12:51:25;98315.59;;;5.11;100.00
17635;BME280;8936;49.010;12.120;2023-02-02T12:54:02;98314.09;;;5.21;100.00
17635;BME280;8936;49.010;12.120;2023-02-02T12:56:31;98325.88;;;5.25;100.00
17635;BME280;8936;49.010;12.120;2023-02-02T12:59:03;98319.06;;;5.11;100.00
17635;BME280;8936;49.010;12.120;2023-02-02T13:01:41;98327.63;;;5.13;100.00
17635;BME280;8936;49.010;12.120;2023-02-02T13:04:16;98336.09;;;5.22;100.00
17635;BME280;8936;49.010;12.120;2023-02-02T13:06:54;98319.69;;;5.13;100.00
17635;BME280;8936;49.010;12.120;2023-02-02T13:09:28;98329.97;;;5.21;100.00
17635;BME280;8936;49.010;12.120;2023-02-02T13:11:56;98327.28;;;5.03;100.00
17635;BME280;8936;49.010;12.120;2023-02-02T13:14:28;98326.84;;;5.06;100.00